Time;durP1;ratioP1;P1;durP2;ratioP2;P2;SDS_P1;SDS_P2;PMS_P1;PMS_P2;Temp;Humidity;BMP_temperature;BMP_pressure;BME280_temperature;BME280_humidity;BME280_pressure;Samples;Min_cycle;Max_cycle;Signal;HPM_P1;HPM_P2
2021/08/06 00:01:15;;;;;;;2.70;2.50;;;16.60;99.90;;;;;;5075857;28;20167;-63
2021/08/06 00:03:41;;;;;;;2.70;2.50;;;16.70;99.90;;;;;;5075701;28;20269;-64
2021/08/06 00:06:07;;;;;;;2.60;2.40;;;16.80;99.90;;;;;;5075892;28;20649;-64
2021/08/06 00:08:33;;;;;;;3.43;2.30;;;16.60;99.90;;;;;;5075409;28;20675;-66
2021/08/06 00:10:59;;;;;;;3.63;3.10;;;16.60;99.90;;;;;;5075848;28;20177;-66
2021/08/06 00:13:25;;;;;;;4.80;3.13;;;16.40;99.90;;;;;;5075146;28;22158;-64
2021/08/06 00:15:51;;;;;;;2.80;2.60;;;16.40;99.90;;;;;;5075917;28;20598;-64
2021/08/06 00:18:17;;;;;;;3.17;2.80;;;16.40;99.90;;;;;;5075227;28;20171;-64
2021/08/06 00:20:44;;;;;;;2.70;2.50;;;16.30;99.90;;;;;;5075837;28;20189;-66
2021/08/06 00:23:10;;;;;;;2.80;2.40;;;16.30;99.90;;;;;;5075258;28;20285;-64
2021/08/06 00:25:35;;;;;;;8.23;2.70;;;16.20;99.90;;;;;;5075699;28;20261;-64
2021/08/06 00:28:01;;;;;;;4.17;2.23;;;16.40;99.90;;;;;;5075996;28;20634;-66
2021/08/06 00:30:27;;;;;;;3.80;2.20;;;16.30;99.90;;;;;;5074795;28;20622;-65
2021/08/06 00:32:53;;;;;;;3.70;2.50;;;16.30;99.90;;;;;;5054704;28;20218;-64
2021/08/06 00:35:19;;;;;;;3.90;2.07;;;16.30;99.90;;;;;;5055168;28;20256;-64
2021/08/06 00:37:44;;;;;;;2.53;2.27;;;16.20;99.90;;;;;;5055307;28;20175;-63
2021/08/06 00:40:10;;;;;;;3.70;2.03;;;16.30;99.90;;;;;;5055037;28;20182;-64
2021/08/06 00:42:36;;;;;;;5.07;2.20;;;16.30;99.90;;;;;;5055230;28;20191;-66
2021/08/06 00:45:03;;;;;;;2.60;2.40;;;16.20;99.90;;;;;;5055634;28;20221;-65
2021/08/06 00:47:29;;;;;;;5.80;2.50;;;16.20;99.90;;;;;;5054903;28;20171;-66
2021/08/06 00:49:55;;;;;;;2.67;2.30;;;16.10;99.90;;;;;;5054975;28;20172;-63
2021/08/06 00:52:21;;;;;;;4.93;2.30;;;16.10;99.90;;;;;;5054730;28;20187;-64
2021/08/06 00:54:46;;;;;;;2.53;2.27;;;16.10;99.90;;;;;;5054554;28;20214;-66
2021/08/06 00:57:13;;;;;;;2.83;2.63;;;16.20;99.90;;;;;;5054631;28;20163;-66
2021/08/06 00:59:39;;;;;;;2.83;2.63;;;16.30;99.90;;;;;;5054690;28;20186;-64
2021/08/06 01:02:20;;;;;;;3.40;2.70;;;16.40;99.90;;;;;;5054393;28;20168;-66
2021/08/06 01:05:04;;;;;;;4.40;2.50;;;16.40;99.90;;;;;;5055424;28;20227;-66
2021/08/06 01:08:01;;;;;;;2.80;2.53;;;16.40;99.90;;;;;;5054945;28;20671;-65
2021/08/06 01:10:35;;;;;;;3.00;2.77;;;16.30;99.90;;;;;;5054440;28;20179;-66
2021/08/06 01:13:02;;;;;;;3.80;2.53;;;16.30;99.90;;;;;;5054237;28;20513;-66
2021/08/06 01:15:29;;;;;;;3.17;2.40;;;16.20;99.90;;;;;;5054342;28;20294;-64
2021/08/06 01:17:58;;;;;;;2.33;2.00;;;16.30;99.90;;;;;;5054649;28;20163;-64
2021/08/06 01:20:28;;;;;;;2.10;2.00;;;16.30;99.90;;;;;;5054154;28;20262;-66
2021/08/06 01:23:07;;;;;;;3.13;2.53;;;16.30;99.90;;;;;;5054198;28;20194;-64
2021/08/06 01:25:52;;;;;;;3.57;2.57;;;16.30;99.90;;;;;;5054189;28;20167;-65
2021/08/06 01:28:21;;;;;;;3.30;2.50;;;16.30;99.90;;;;;;5054258;28;20175;-64
2021/08/06 01:30:47;;;;;;;2.57;2.37;;;16.40;99.90;;;;;;5054066;28;20297;-64
2021/08/06 01:33:15;;;;;;;3.37;2.23;;;16.50;99.90;;;;;;5053821;28;20589;-64
2021/08/06 01:35:41;;;;;;;2.57;2.30;;;16.50;99.90;;;;;;5053988;28;20170;-64
2021/08/06 01:38:08;;;;;;;2.47;2.27;;;16.60;99.90;;;;;;5053911;28;20509;-64
2021/08/06 01:41:00;;;;;;;5.13;2.03;;;16.70;99.90;;;;;;5053965;28;20182;-66
2021/08/06 01:43:31;;;;;;;2.57;2.20;;;16.70;99.90;;;;;;5032415;28;20211;-66
2021/08/06 01:46:14;;;;;;;2.43;2.27;;;16.60;99.90;;;;;;5054187;28;20167;-64
2021/08/06 01:48:42;;;;;;;3.57;2.40;;;16.70;99.90;;;;;;5053693;28;20246;-64
2021/08/06 01:51:10;;;;;;;4.27;2.10;;;16.60;99.90;;;;;;5054040;28;20202;-65
2021/08/06 01:53:40;;;;;;;2.60;2.03;;;16.50;99.90;;;;;;5053901;28;20218;-66
2021/08/06 01:56:08;;;;;;;4.07;2.20;;;16.50;99.90;;;;;;5054048;28;20163;-66
2021/08/06 01:58:36;;;;;;;3.00;2.33;;;16.40;99.90;;;;;;5053322;28;20532;-65
2021/08/06 02:01:02;;;;;;;1.93;1.83;;;16.40;99.90;;;;;;5053824;28;20167;-64
2021/08/06 02:03:28;;;;;;;3.37;2.00;;;16.40;99.90;;;;;;5053506;28;20241;-64
2021/08/06 02:05:54;;;;;;;3.40;2.17;;;16.40;99.90;;;;;;5053680;28;20182;-66
2021/08/06 02:08:20;;;;;;;2.63;2.00;;;16.40;99.90;;;;;;5053643;28;20621;-66
2021/08/06 02:10:46;;;;;;;2.47;2.27;;;16.60;99.90;;;;;;5054108;28;20497;-65
2021/08/06 02:13:12;;;;;;;5.13;2.23;;;16.60;99.90;;;;;;5053615;28;20198;-65
2021/08/06 02:15:41;;;;;;;2.53;2.17;;;16.50;99.90;;;;;;5053591;28;20194;-65
2021/08/06 02:18:10;;;;;;;2.57;2.37;;;16.50;99.90;;;;;;5053445;28;20160;-66
2021/08/06 02:20:37;;;;;;;2.80;2.40;;;16.50;99.90;;;;;;5054020;28;20163;-64
2021/08/06 02:23:06;;;;;;;4.20;2.60;;;16.50;99.90;;;;;;5057128;28;20193;-66
2021/08/06 02:25:32;;;;;;;4.50;2.30;;;16.40;99.90;;;;;;5057388;28;20519;-65
2021/08/06 02:28:00;;;;;;;2.93;2.27;;;16.20;99.90;;;;;;5057936;28;20233;-64
2021/08/06 02:30:27;;;;;;;3.87;2.70;;;16.10;99.90;;;;;;5057508;28;20171;-66
2021/08/06 02:32:53;;;;;;;2.40;2.20;;;16.10;99.90;;;;;;5057051;28;20659;-66
2021/08/06 02:35:18;;;;;;;3.57;2.60;;;16.20;99.90;;;;;;5057377;28;20333;-64
2021/08/06 02:37:46;;;;;;;2.53;2.33;;;16.20;99.90;;;;;;5057899;28;20603;-66
2021/08/06 02:40:12;;;;;;;3.07;2.50;;;16.30;99.90;;;;;;5057916;28;20174;-63
2021/08/06 02:42:37;;;;;;;3.83;2.60;;;16.30;99.90;;;;;;5057374;28;20163;-66
2021/08/06 02:45:04;;;;;;;3.80;3.00;;;16.30;99.90;;;;;;5057418;28;20171;-65
2021/08/06 02:47:30;;;;;;;4.90;2.90;;;16.20;99.90;;;;;;5057062;28;20578;-66
2021/08/06 02:49:56;;;;;;;2.60;2.33;;;16.00;99.90;;;;;;5057016;28;20709;-66
2021/08/06 02:52:21;;;;;;;4.00;2.13;;;16.30;99.90;;;;;;5056792;28;20222;-64
2021/08/06 02:54:47;;;;;;;3.30;2.60;;;16.30;99.90;;;;;;5057388;28;20203;-66
2021/08/06 02:57:13;;;;;;;2.47;2.20;;;16.50;99.90;;;;;;5057338;28;20167;-66
2021/08/06 02:59:38;;;;;;;3.57;2.30;;;16.70;99.90;;;;;;5056982;28;20199;-66
2021/08/06 03:02:04;;;;;;;2.40;2.20;;;16.80;99.90;;;;;;5056583;28;20172;-63
2021/08/06 03:04:29;;;;;;;2.57;2.37;;;16.80;99.90;;;;;;5056709;28;20551;-66
2021/08/06 03:06:55;;;;;;;3.30;2.40;;;16.90;99.90;;;;;;5057351;28;20174;-63
2021/08/06 03:09:20;;;;;;;2.73;2.30;;;17.00;99.90;;;;;;5056838;28;20221;-66
2021/08/06 03:11:46;;;;;;;3.27;2.30;;;17.10;99.90;;;;;;5056687;28;20221;-67
2021/08/06 03:14:12;;;;;;;2.30;2.10;;;17.10;99.90;;;;;;5056783;28;20345;-66
2021/08/06 03:16:37;;;;;;;4.60;2.30;;;17.20;99.90;;;;;;5056632;28;20232;-64
2021/08/06 03:19:03;;;;;;;3.77;2.63;;;17.20;99.90;;;;;;5056536;28;20175;-66
2021/08/06 03:21:29;;;;;;;2.77;2.20;;;17.30;99.90;;;;;;5056405;28;20163;-66
2021/08/06 03:23:54;;;;;;;2.60;2.07;;;17.30;99.90;;;;;;5056729;28;20704;-63
2021/08/06 03:26:20;;;;;;;2.30;2.10;;;17.20;99.90;;;;;;5056625;28;20192;-66
2021/08/06 03:28:45;;;;;;;3.13;2.10;;;17.20;99.90;;;;;;5056601;28;20182;-63
2021/08/06 03:31:11;;;;;;;5.83;2.60;;;17.30;99.90;;;;;;5071588;28;20215;-63
2021/08/06 03:33:37;;;;;;;2.73;2.40;;;17.40;99.90;;;;;;5055533;28;20199;-66
2021/08/06 03:36:03;;;;;;;2.50;2.20;;;17.40;99.90;;;;;;5056859;28;20258;-66
2021/08/06 03:38:29;;;;;;;2.07;1.97;;;17.40;99.90;;;;;;5056369;28;20191;-63
2021/08/06 03:40:55;;;;;;;4.53;2.47;;;17.40;99.90;;;;;;5056167;28;20167;-65
2021/08/06 03:43:21;;;;;;;2.50;2.07;;;17.20;99.90;;;;;;5056054;28;20192;-63
2021/08/06 03:45:46;;;;;;;2.50;2.20;;;17.00;99.90;;;;;;5056007;28;20173;-63
2021/08/06 03:48:12;;;;;;;2.27;1.90;;;16.80;99.90;;;;;;5055940;28;20169;-64
2021/08/06 03:50:38;;;;;;;2.33;2.13;;;16.70;99.90;;;;;;5055574;28;20164;-64
2021/08/06 03:53:03;;;;;;;2.47;2.27;;;16.60;99.90;;;;;;5055612;28;20577;-65
2021/08/06 03:55:29;;;;;;;3.30;2.10;;;16.70;99.90;;;;;;5055704;28;20207;-64
2021/08/06 03:57:57;;;;;;;2.10;2.00;;;16.50;99.90;;;;;;5055781;28;20171;-66
2021/08/06 04:00:24;;;;;;;3.93;2.10;;;16.50;99.90;;;;;;5056118;28;20167;-66
2021/08/06 04:02:50;;;;;;;2.90;2.17;;;16.50;99.90;;;;;;5070810;28;20542;-66
2021/08/06 04:05:16;;;;;;;2.47;2.10;;;16.60;99.90;;;;;;5055683;28;20709;-63
2021/08/06 04:07:43;;;;;;;6.27;2.50;;;16.60;99.90;;;;;;5056477;28;20198;-66
2021/08/06 04:10:17;;;;;;;2.30;2.03;;;16.60;99.90;;;;;;5073284;28;20287;-64
2021/08/06 04:12:46;;;;;;;2.27;2.03;;;16.60;99.90;;;;;;5075633;28;20173;-66
2021/08/06 04:15:11;;;;;;;2.27;2.07;;;16.50;99.90;;;;;;5075653;28;20199;-66
2021/08/06 04:17:37;;;;;;;3.90;2.20;;;16.40;99.90;;;;;;5075506;28;20595;-66
2021/08/06 04:20:03;;;;;;;2.30;2.10;;;16.50;99.90;;;;;;5076170;28;20224;-66
2021/08/06 04:22:28;;;;;;;3.33;2.40;;;16.50;99.90;;;;;;5075152;28;20642;-66
2021/08/06 04:24:54;;;;;;;2.50;2.30;;;16.40;99.90;;;;;;5074032;28;20183;-66
2021/08/06 04:27:19;;;;;;;2.87;2.23;;;16.40;99.90;;;;;;5075182;28;20257;-66
2021/08/06 04:29:45;;;;;;;3.57;2.20;;;16.30;99.90;;;;;;5075293;28;20170;-63
2021/08/06 04:32:10;;;;;;;3.40;2.60;;;16.40;99.90;;;;;;5075565;28;20239;-66
2021/08/06 04:34:36;;;;;;;6.17;2.67;;;16.40;99.90;;;;;;5075756;28;20228;-65
2021/08/06 04:37:02;;;;;;;2.63;2.43;;;16.60;99.90;;;;;;5075151;28;20205;-65
2021/08/06 04:39:27;;;;;;;2.00;1.90;;;16.60;99.90;;;;;;5075260;28;20166;-66
2021/08/06 04:41:53;;;;;;;2.50;2.30;;;16.70;99.90;;;;;;5074840;28;20188;-66
2021/08/06 04:44:19;;;;;;;3.13;2.10;;;16.70;99.90;;;;;;5074047;28;20260;-66
2021/08/06 04:46:45;;;;;;;2.30;1.90;;;16.80;99.90;;;;;;5075301;28;20179;-64
2021/08/06 04:49:11;;;;;;;5.53;2.30;;;16.70;99.90;;;;;;5074780;28;20573;-62
2021/08/06 04:51:37;;;;;;;2.30;2.10;;;16.50;99.90;;;;;;5074740;28;20171;-65
2021/08/06 04:54:03;;;;;;;3.10;2.70;;;16.40;99.90;;;;;;5074903;28;20214;-66
2021/08/06 04:56:28;;;;;;;2.43;2.20;;;16.30;99.90;;;;;;5073144;28;20199;-66
2021/08/06 04:58:54;;;;;;;2.17;2.00;;;16.40;99.90;;;;;;5065994;28;20184;-66
2021/08/06 05:01:19;;;;;;;3.70;2.27;;;16.50;99.90;;;;;;5076191;28;20538;-65
2021/08/06 05:03:45;;;;;;;4.57;2.30;;;16.60;99.90;;;;;;5073607;28;20560;-65
2021/08/06 05:06:10;;;;;;;3.03;2.40;;;16.50;99.90;;;;;;5075638;28;20666;-64
2021/08/06 05:08:38;;;;;;;2.10;2.00;;;16.50;99.90;;;;;;5073822;28;20186;-64
2021/08/06 05:11:04;;;;;;;2.50;2.30;;;16.60;99.90;;;;;;5076193;28;20163;-65
2021/08/06 05:13:30;;;;;;;3.40;2.00;;;16.70;99.90;;;;;;5071061;28;20215;-66
2021/08/06 05:15:55;;;;;;;2.20;2.10;;;16.90;99.90;;;;;;5069821;28;20217;-64
2021/08/06 05:18:21;;;;;;;2.40;2.20;;;17.10;99.90;;;;;;5076462;28;20190;-64
2021/08/06 05:20:46;;;;;;;3.60;2.00;;;17.30;99.90;;;;;;5087187;28;20192;-66
2021/08/06 05:23:12;;;;;;;3.10;2.40;;;17.30;99.90;;;;;;5077116;28;20697;-65
2021/08/06 05:25:37;;;;;;;2.30;2.10;;;17.30;99.90;;;;;;5073454;28;20645;-66
2021/08/06 05:28:04;;;;;;;2.50;2.30;;;17.30;99.90;;;;;;5076141;28;20259;-66
2021/08/06 05:30:29;;;;;;;1.97;1.80;;;17.40;99.90;;;;;;5071089;28;20646;-62
2021/08/06 05:32:55;;;;;;;2.50;2.30;;;17.50;99.90;;;;;;5073489;28;20283;-66
2021/08/06 05:35:20;;;;;;;2.30;2.10;;;17.40;99.90;;;;;;5073609;28;20585;-66
2021/08/06 05:37:46;;;;;;;4.13;3.00;;;17.40;99.90;;;;;;5074151;28;20174;-66
2021/08/06 05:40:12;;;;;;;2.67;2.00;;;17.30;99.90;;;;;;5073962;28;20182;-64
2021/08/06 05:42:38;;;;;;;2.23;1.90;;;17.20;99.90;;;;;;5073882;28;20684;-65
2021/08/06 05:45:04;;;;;;;2.97;2.13;;;17.20;99.90;;;;;;5073547;28;20181;-65
2021/08/06 05:47:41;;;;;;;2.10;1.90;;;17.20;99.90;;;;;;5073420;28;20171;-66
2021/08/06 05:50:07;;;;;;;2.20;1.83;;;17.30;99.90;;;;;;5073030;28;20174;-63
2021/08/06 05:52:33;;;;;;;2.60;1.80;;;17.40;99.90;;;;;;5072874;28;20190;-66
2021/08/06 05:54:58;;;;;;;4.07;2.27;;;17.50;99.90;;;;;;5073004;28;20205;-63
2021/08/06 05:57:24;;;;;;;3.13;2.27;;;17.50;99.90;;;;;;5073029;28;20186;-63
2021/08/06 05:59:49;;;;;;;3.17;2.10;;;17.60;99.90;;;;;;5073713;28;20175;-56
2021/08/06 06:02:15;;;;;;;4.27;1.90;;;17.50;99.90;;;;;;5073433;28;20175;-65
2021/08/06 06:04:40;;;;;;;2.20;2.00;;;17.40;99.90;;;;;;5072869;28;20570;-65
2021/08/06 06:07:06;;;;;;;2.57;1.83;;;17.50;99.90;;;;;;5072448;28;20511;-65
2021/08/06 06:09:31;;;;;;;4.37;2.20;;;17.60;99.90;;;;;;5073857;28;20657;-66
2021/08/06 06:11:57;;;;;;;2.27;1.90;;;17.60;99.90;;;;;;5073123;28;20650;-65
2021/08/06 06:14:22;;;;;;;2.73;1.70;;;17.60;99.90;;;;;;5072278;28;20398;-64
2021/08/06 06:16:48;;;;;;;2.73;2.23;;;17.60;99.90;;;;;;5071276;28;20289;-65
2021/08/06 06:19:13;;;;;;;2.60;1.70;;;17.60;99.90;;;;;;5071353;28;20760;-65
2021/08/06 06:21:39;;;;;;;3.10;1.93;;;17.70;99.90;;;;;;5071244;28;20216;-63
2021/08/06 06:24:04;;;;;;;1.90;1.80;;;17.70;99.90;;;;;;5071144;28;20198;-62
2021/08/06 06:26:30;;;;;;;4.30;1.93;;;17.80;99.90;;;;;;5071423;28;20266;-65
2021/08/06 06:28:56;;;;;;;1.80;1.70;;;17.90;99.90;;;;;;5071584;28;20198;-65
2021/08/06 06:31:21;;;;;;;1.60;1.50;;;18.00;99.90;;;;;;5073423;28;20511;-65
2021/08/06 06:33:47;;;;;;;2.10;1.83;;;17.90;99.90;;;;;;5072208;28;20296;-60
2021/08/06 06:36:12;;;;;;;2.60;1.70;;;17.70;99.90;;;;;;5073489;28;20292;-65
2021/08/06 06:38:38;;;;;;;2.57;1.83;;;17.60;99.90;;;;;;5073497;28;20265;-66
2021/08/06 06:41:03;;;;;;;1.67;1.57;;;17.50;99.90;;;;;;5073271;28;20635;-65
2021/08/06 06:43:29;;;;;;;1.70;1.60;;;17.50;99.90;;;;;;5073759;28;20191;-61
2021/08/06 06:45:55;;;;;;;4.43;1.67;;;17.50;99.90;;;;;;5073899;28;20182;-65
2021/08/06 06:48:24;;;;;;;1.60;1.50;;;17.70;99.90;;;;;;5055372;28;20622;-65
2021/08/06 06:50:50;;;;;;;2.67;1.40;;;17.80;99.90;;;;;;5073797;28;20540;-65
2021/08/06 06:53:16;;;;;;;2.17;1.60;;;17.90;99.90;;;;;;5073106;28;20689;-65
2021/08/06 06:55:41;;;;;;;2.27;1.70;;;18.10;99.90;;;;;;5072553;28;20565;-62
2021/08/06 06:58:07;;;;;;;1.33;1.23;;;18.00;99.90;;;;;;5073860;28;20178;-62
2021/08/06 07:00:33;;;;;;;4.07;1.43;;;18.00;99.90;;;;;;5073382;28;20171;-65
2021/08/06 07:03:00;;;;;;;1.43;1.33;;;18.30;99.90;;;;;;5072959;28;20195;-64
2021/08/06 07:05:26;;;;;;;2.13;1.40;;;18.60;99.90;;;;;;5073246;28;20167;-62
2021/08/06 07:07:51;;;;;;;1.67;1.50;;;19.00;99.90;;;;;;5074939;28;20167;-62
2021/08/06 07:10:17;;;;;;;1.40;1.27;;;19.00;99.90;;;;;;5076770;28;20650;-61
2021/08/06 07:12:44;;;;;;;1.67;1.53;;;19.00;99.90;;;;;;5076686;28;20174;-66
2021/08/06 07:15:11;;;;;;;2.20;1.40;;;19.00;99.90;;;;;;5076722;28;20611;-60
2021/08/06 07:17:37;;;;;;;2.03;1.40;;;19.00;99.90;;;;;;5076614;28;20163;-62
2021/08/06 07:20:05;;;;;;;1.50;1.10;;;18.70;99.90;;;;;;5076799;28;20166;-65
2021/08/06 07:22:31;;;;;;;3.67;1.40;;;18.70;99.90;;;;;;5075415;28;20170;-60
2021/08/06 07:24:56;;;;;;;2.17;1.40;;;18.70;99.90;;;;;;5076986;28;20584;-62
2021/08/06 07:27:22;;;;;;;1.93;1.40;;;18.60;99.90;;;;;;5075559;28;20216;-66
2021/08/06 07:29:48;;;;;;;1.50;1.40;;;18.60;99.90;;;;;;5076602;28;20642;-62
2021/08/06 07:32:14;;;;;;;2.33;1.53;;;18.70;99.90;;;;;;5076279;28;20170;-66
2021/08/06 07:34:39;;;;;;;2.30;1.50;;;18.70;99.90;;;;;;5075993;28;20198;-66
2021/08/06 07:37:05;;;;;;;3.30;1.67;;;18.80;99.90;;;;;;5076069;28;20224;-65
2021/08/06 07:39:30;;;;;;;2.43;1.47;;;19.00;99.90;;;;;;5076230;28;20178;-65
2021/08/06 07:41:56;;;;;;;4.70;1.60;;;19.20;99.90;;;;;;5075724;28;20167;-66
2021/08/06 07:44:22;;;;;;;3.10;1.80;;;19.30;99.90;;;;;;5076132;28;20601;-66
2021/08/06 07:46:47;;;;;;;1.63;1.40;;;19.30;99.90;;;;;;5076149;28;20637;-66
2021/08/06 07:49:13;;;;;;;3.20;1.47;;;19.60;99.90;;;;;;5074801;28;20696;-61
2021/08/06 07:51:38;;;;;;;3.03;1.60;;;19.90;99.90;;;;;;5075936;28;20181;-66
2021/08/06 07:54:05;;;;;;;1.42;1.33;;;19.90;99.90;;;;;;5075998;28;20226;-62
2021/08/06 07:56:30;;;;;;;2.00;1.40;;;19.80;99.90;;;;;;5076659;28;20518;-61
2021/08/06 07:58:56;;;;;;;2.97;1.55;;;19.70;99.90;;;;;;5075956;28;20160;-62
2021/08/06 08:01:21;;;;;;;1.55;1.17;;;19.70;99.90;;;;;;5075789;28;20531;-65
2021/08/06 08:03:47;;;;;;;1.90;1.45;;;19.80;99.90;;;;;;5076219;28;20196;-58
2021/08/06 08:06:14;;;;;;;2.30;1.67;;;19.80;99.90;;;;;;5075896;28;20223;-64
2021/08/06 08:08:40;;;;;;;1.50;1.10;;;19.70;99.90;;;;;;5076104;28;20643;-64
2021/08/06 08:11:06;;;;;;;1.30;1.20;;;19.80;99.90;;;;;;5075460;28;20171;-64
2021/08/06 08:13:32;;;;;;;1.90;1.33;;;20.00;99.90;;;;;;5075682;28;20192;-65
2021/08/06 08:15:58;;;;;;;1.83;1.50;;;20.10;99.90;;;;;;5075632;28;20171;-65
2021/08/06 08:18:24;;;;;;;1.67;1.57;;;20.00;99.90;;;;;;5075594;28;20163;-65
2021/08/06 08:20:49;;;;;;;1.60;1.50;;;19.90;99.90;;;;;;5075526;28;20217;-65
2021/08/06 08:23:16;;;;;;;1.67;1.30;;;20.10;99.90;;;;;;5075290;28;20190;-65
2021/08/06 08:25:42;;;;;;;1.48;1.38;;;20.20;99.90;;;;;;5074314;28;20182;-63
2021/08/06 08:28:08;;;;;;;3.17;1.40;;;20.30;99.90;;;;;;5075470;28;20176;-64
2021/08/06 08:30:34;;;;;;;2.03;1.50;;;20.60;99.90;;;;;;5075433;28;20173;-65
2021/08/06 08:32:59;;;;;;;1.67;1.50;;;20.70;99.90;;;;;;5075015;28;20200;-65
2021/08/06 08:35:25;;;;;;;1.40;1.30;;;20.60;99.90;;;;;;5075396;28;20209;-65
2021/08/06 08:37:51;;;;;;;2.55;1.50;;;20.70;99.90;;;;;;5075744;28;20526;-65
2021/08/06 08:40:16;;;;;;;1.40;1.30;;;20.70;99.90;;;;;;5075266;28;20194;-65
2021/08/06 08:42:44;;;;;;;1.50;1.33;;;20.80;99.90;;;;;;5074537;28;20531;-65
2021/08/06 08:45:10;;;;;;;2.08;1.33;;;20.90;99.90;;;;;;5075260;28;20177;-65
2021/08/06 08:47:37;;;;;;;2.35;1.55;;;21.00;99.90;;;;;;5075100;28;20197;-64
2021/08/06 08:50:05;;;;;;;1.30;1.20;;;21.30;99.90;;;;;;5075099;28;20178;-65
2021/08/06 08:52:31;;;;;;;2.88;1.23;;;21.50;99.90;;;;;;5074681;28;20629;-66
2021/08/06 08:54:57;;;;;;;1.50;1.33;;;21.90;99.90;;;;;;5074688;28;20666;-65
2021/08/06 08:57:24;;;;;;;1.67;1.58;;;22.00;99.90;;;;;;5075069;28;20170;-65
2021/08/06 08:59:52;;;;;;;3.00;1.50;;;22.00;99.90;;;;;;5074750;28;20611;-64
2021/08/06 09:02:18;;;;;;;1.33;1.23;;;21.90;99.90;;;;;;5074806;28;20205;-64
2021/08/06 09:04:45;;;;;;;5.95;1.40;;;22.00;99.90;;;;;;5074618;28;20535;-63
2021/08/06 09:07:28;;;;;;;2.42;1.30;;;22.50;99.90;;;;;;5075354;28;20182;-63
2021/08/06 09:10:26;;;;;;;1.30;1.20;;;22.60;99.90;;;;;;5074915;28;20181;-64
2021/08/06 09:12:59;;;;;;;1.30;1.20;;;22.60;99.90;;;;;;5074419;28;20255;-65
2021/08/06 09:15:57;;;;;;;1.88;1.40;;;22.70;99.90;;;;;;5074985;28;20190;-65
2021/08/06 09:18:24;;;;;;;0.98;0.90;;;22.80;99.90;;;;;;5074202;28;20221;-65
2021/08/06 09:21:15;;;;;;;2.22;1.30;;;22.70;99.90;;;;;;5074564;28;20682;-65
2021/08/06 09:23:44;;;;;;;1.17;1.08;;;22.60;99.90;;;;;;5068353;28;20210;-65
2021/08/06 09:26:28;;;;;;;2.63;1.30;;;22.40;99.90;;;;;;5074292;28;20230;-65
2021/08/06 09:29:13;;;;;;;1.23;1.10;;;22.40;99.90;;;;;;5074187;28;20642;-64
2021/08/06 09:31:49;;;;;;;1.60;1.23;;;22.30;99.90;;;;;;5073818;28;20166;-65
2021/08/06 09:34:25;;;;;;;2.15;1.17;;;21.90;99.90;;;;;;5073981;28;20194;-64
2021/08/06 09:37:03;;;;;;;1.25;1.15;;;21.60;99.90;;;;;;5072293;28;20165;-64
2021/08/06 09:39:37;;;;;;;1.40;1.30;;;21.30;99.90;;;;;;5054246;28;20159;-65
2021/08/06 09:42:04;;;;;;;1.33;1.23;;;21.20;99.90;;;;;;5054153;28;20163;-65
2021/08/06 09:44:30;;;;;;;3.25;1.40;;;21.00;99.90;;;;;;5054138;28;20286;-64
2021/08/06 09:46:57;;;;;;;10.25;1.88;;;20.60;99.90;;;;;;5053982;28;20271;-64
2021/08/06 09:49:23;;;;;;;3.42;1.55;;;20.20;99.90;;;;;;5053962;28;20172;-64
2021/08/06 09:51:51;;;;;;;2.72;1.95;;;19.90;99.90;;;;;;5054055;28;20171;-64
2021/08/06 09:54:17;;;;;;;2.05;1.60;;;20.40;99.90;;;;;;5053315;28;20249;-65
2021/08/06 09:56:43;;;;;;;1.98;1.35;;;20.30;99.90;;;;;;5054328;28;20179;-65
2021/08/06 09:59:09;;;;;;;3.05;1.83;;;20.40;99.90;;;;;;5054206;28;20695;-65
2021/08/06 10:01:35;;;;;;;2.15;1.50;;;20.70;99.90;;;;;;5053850;28;20183;-65
2021/08/06 10:04:15;;;;;;;1.92;1.25;;;21.10;99.90;;;;;;5053847;28;20187;-65
2021/08/06 10:06:57;;;;;;;2.35;1.60;;;21.30;99.90;;;;;;5053703;28;20179;-65
2021/08/06 10:09:22;;;;;;;1.65;1.40;;;21.30;99.90;;;;;;5053602;28;20212;-65
2021/08/06 10:11:48;;;;;;;2.65;1.38;;;21.10;99.90;;;;;;5053828;28;20225;-65
2021/08/06 10:14:15;;;;;;;2.72;1.50;;;20.70;99.90;;;;;;5053693;28;20212;-65
2021/08/06 10:16:40;;;;;;;2.97;1.40;;;20.60;99.90;;;;;;5053529;28;20257;-65
2021/08/06 10:19:07;;;;;;;1.67;1.55;;;20.40;99.90;;;;;;5053565;28;20195;-65
2021/08/06 10:21:32;;;;;;;1.65;1.30;;;20.30;99.90;;;;;;5053448;28;20177;-65
2021/08/06 10:23:58;;;;;;;2.60;1.50;;;20.10;99.90;;;;;;5053449;28;20199;-65
2021/08/06 10:26:24;;;;;;;3.08;1.50;;;20.00;99.90;;;;;;5054201;28;20216;-64
2021/08/06 10:28:50;;;;;;;2.63;1.67;;;20.00;99.90;;;;;;5054345;28;20187;-65
2021/08/06 10:31:21;;;;;;;2.10;1.83;;;20.00;99.90;;;;;;5053154;28;20180;-65
2021/08/06 10:34:12;;;;;;;2.53;2.10;;;19.80;99.90;;;;;;5053176;28;20195;-64
2021/08/06 10:36:50;;;;;;;3.10;1.87;;;19.70;99.90;;;;;;5053485;28;20519;-64
2021/08/06 10:39:31;;;;;;;3.10;1.70;;;19.50;99.90;;;;;;5053505;28;20179;-65
2021/08/06 10:41:58;;;;;;;3.07;1.90;;;19.90;99.90;;;;;;5053869;28;20246;-64
2021/08/06 10:44:24;;;;;;;2.13;1.65;;;19.80;99.90;;;;;;5057221;28;20200;-65
2021/08/06 10:47:02;;;;;;;3.65;1.63;;;20.10;99.90;;;;;;5057426;28;20188;-65
2021/08/06 10:49:30;;;;;;;1.50;1.40;;;20.50;99.90;;;;;;5057451;28;20181;-65
2021/08/06 10:52:12;;;;;;;2.28;1.50;;;20.80;99.90;;;;;;5057350;28;20512;-64
2021/08/06 10:54:38;;;;;;;2.65;1.63;;;20.90;99.90;;;;;;5056959;28;20682;-64
2021/08/06 10:57:19;;;;;;;1.60;1.50;;;20.90;99.90;;;;;;5057506;28;20182;-64
2021/08/06 10:59:46;;;;;;;1.38;1.27;;;21.00;99.90;;;;;;5057696;28;20233;-65
2021/08/06 11:02:33;;;;;;;1.60;1.48;;;21.10;99.90;;;;;;5057416;28;20317;-64
2021/08/06 11:05:00;;;;;;;1.50;1.40;;;21.10;99.90;;;;;;5056776;28;20252;-65
2021/08/06 11:07:35;;;;;;;1.50;1.40;;;20.90;99.90;;;;;;5057059;28;20551;-64
2021/08/06 11:10:01;;;;;;;2.03;1.45;;;20.90;99.90;;;;;;5057310;28;20190;-65
2021/08/06 11:12:34;;;;;;;1.40;1.30;;;21.20;99.90;;;;;;5056786;28;20187;-65
2021/08/06 11:15:04;;;;;;;1.52;1.38;;;21.50;99.90;;;;;;5057072;28;20214;-64
2021/08/06 11:17:42;;;;;;;1.65;1.55;;;21.50;99.90;;;;;;5056732;28;20231;-65
2021/08/06 11:20:19;;;;;;;1.20;1.20;;;21.50;99.90;;;;;;5056659;28;20515;-65
2021/08/06 11:22:50;;;;;;;1.50;1.40;;;21.60;99.90;;;;;;5072007;28;20249;-65
2021/08/06 11:25:23;;;;;;;1.90;1.40;;;21.60;99.90;;;;;;5056720;28;20237;-64
2021/08/06 11:28:00;;;;;;;2.58;1.60;;;21.60;99.90;;;;;;5071633;28;20187;-64
2021/08/06 11:30:29;;;;;;;1.73;1.63;;;21.60;99.90;;;;;;5057047;28;20497;-64
2021/08/06 11:33:00;;;;;;;1.27;1.17;;;21.60;99.90;;;;;;5056079;28;20559;-65
2021/08/06 11:35:35;;;;;;;1.40;1.30;;;21.50;99.90;;;;;;5056295;28;20199;-64
2021/08/06 11:38:04;;;;;;;1.42;1.33;;;21.50;99.90;;;;;;5056640;28;20159;-65
2021/08/06 11:40:36;;;;;;;1.83;1.48;;;21.40;99.90;;;;;;5056318;28;20241;-64
2021/08/06 11:43:16;;;;;;;1.77;1.20;;;21.60;99.90;;;;;;5056307;28;20269;-65
2021/08/06 11:45:47;;;;;;;1.42;1.33;;;21.70;99.90;;;;;;5056221;28;20175;-64
2021/08/06 11:48:12;;;;;;;1.40;1.30;;;21.90;99.90;;;;;;5056720;28;20250;-64
2021/08/06 11:50:50;;;;;;;1.38;1.27;;;22.00;99.90;;;;;;5056442;28;20610;-65
2021/08/06 11:53:27;;;;;;;1.50;1.40;;;22.30;99.90;;;;;;5055707;28;20203;-64
2021/08/06 11:55:57;;;;;;;2.72;1.13;;;22.40;99.90;;;;;;5056069;28;20725;-65
2021/08/06 11:58:31;;;;;;;1.40;1.30;;;22.50;99.90;;;;;;5056153;28;20171;-65
2021/08/06 12:00:57;;;;;;;1.00;1.00;;;22.30;99.90;;;;;;5055949;28;20175;-64
2021/08/06 12:03:22;;;;;;;1.20;1.10;;;22.30;99.90;;;;;;5055645;28;20195;-64
2021/08/06 12:05:55;;;;;;;0.90;0.90;;;22.20;99.90;;;;;;5055801;28;20501;-65
2021/08/06 12:08:30;;;;;;;1.10;1.00;;;22.00;99.90;;;;;;5055448;28;20741;-65
2021/08/06 12:11:17;;;;;;;0.93;0.70;;;21.80;99.90;;;;;;5055962;28;20213;-64
2021/08/06 12:13:50;;;;;;;1.13;1.02;;;21.80;99.90;;;;;;5055420;28;20199;-64
2021/08/06 12:16:27;;;;;;;0.80;0.80;;;22.20;99.90;;;;;;5055820;28;20199;-64
2021/08/06 12:18:54;;;;;;;0.80;0.80;;;22.50;99.90;;;;;;5055373;28;20178;-65
2021/08/06 12:21:28;;;;;;;0.90;0.90;;;22.80;99.90;;;;;;5056159;28;20271;-65
2021/08/06 12:23:59;;;;;;;2.72;0.90;;;22.70;99.90;;;;;;5055750;28;20193;-64
2021/08/06 12:26:34;;;;;;;1.23;1.00;;;22.70;99.90;;;;;;5055050;28;20511;-65
2021/08/06 12:29:18;;;;;;;0.80;0.80;;;22.60;99.90;;;;;;5055746;28;20661;-65
2021/08/06 12:31:57;;;;;;;0.73;0.73;;;22.80;99.90;;;;;;5055164;28;20206;-65
2021/08/06 12:34:23;;;;;;;1.42;1.10;;;23.20;99.90;;;;;;5055406;28;20217;-65
2021/08/06 12:36:55;;;;;;;0.70;0.70;;;23.40;99.90;;;;;;5055343;28;20254;-65
2021/08/06 12:39:21;;;;;;;1.02;0.80;;;23.40;99.90;;;;;;5055153;28;20651;-65
2021/08/06 12:41:49;;;;;;;1.38;0.90;;;23.70;99.90;;;;;;5054981;28;20167;-64
2021/08/06 12:44:29;;;;;;;1.48;1.00;;;23.80;99.90;;;;;;5055069;28;20200;-65
2021/08/06 12:47:04;;;;;;;1.20;0.90;;;23.90;99.90;;;;;;5055259;28;20651;-65
2021/08/06 12:49:41;;;;;;;1.08;0.98;;;23.70;99.90;;;;;;5055861;28;20503;-64
2021/08/06 12:52:23;;;;;;;0.90;0.90;;;23.40;99.90;;;;;;5068944;28;20208;-65
2021/08/06 12:54:54;;;;;;;2.15;1.13;;;23.50;99.90;;;;;;5074476;28;20237;-64